Terminal Aerodrome Forecast
Issued by NWS Melbourne, FL

Home | Current Version | Previous Version | Text Only | Print | Product List | Glossary On
Versions: 1 2 3 4 5 6 7 8 9 10 11 12 13 14
000
FTUS42 KMLB 230315 AAA
TAFVRB
TAF AMD
KVRB 230315Z 2303/2324 13008KT P6SM VCSH SCT025 BKN080
      TEMPO 2303/2304 5SM SHRA BKN025
     FM230900 14007KT P6SM VCSH SCT025 BKN035
     FM231400 16011KT P6SM VCSH SCT025 BKN080=

USA.gov is the U.S. government's official web portal to all federal, state and local government web resources and services.